sensor_id;sensor_type;location;lat;lon;timestamp;P1;durP1;ratioP1;P2;durP2;ratioP2
16792;SDS011;8513;42.662;23.350;2023-07-29T00:01:58;5.45;;;2.90;;
16792;SDS011;8513;42.662;23.350;2023-07-29T00:04:23;2.90;;;2.60;;
16792;SDS011;8513;42.662;23.350;2023-07-29T00:06:49;3.10;;;2.80;;
16792;SDS011;8513;42.662;23.350;2023-07-29T00:09:14;4.28;;;2.60;;
16792;SDS011;8513;42.662;23.350;2023-07-29T00:11:39;4.50;;;2.65;;
16792;SDS011;8513;42.662;23.350;2023-07-29T00:14:05;2.95;;;2.63;;
16792;SDS011;8513;42.662;23.350;2023-07-29T00:16:30;2.83;;;2.35;;
16792;SDS011;8513;42.662;23.350;2023-07-29T00:18:56;2.55;;;2.35;;
16792;SDS011;8513;42.662;23.350;2023-07-29T00:21:21;2.75;;;2.50;;
16792;SDS011;8513;42.662;23.350;2023-07-29T00:23:47;3.92;;;2.78;;
16792;SDS011;8513;42.662;23.350;2023-07-29T00:26:12;4.05;;;2.90;;
16792;SDS011;8513;42.662;23.350;2023-07-29T00:28:37;3.08;;;2.78;;
16792;SDS011;8513;42.662;23.350;2023-07-29T00:31:03;3.80;;;2.92;;
16792;SDS011;8513;42.662;23.350;2023-07-29T00:33:28;4.13;;;2.75;;
16792;SDS011;8513;42.662;23.350;2023-07-29T00:35:54;3.92;;;2.50;;
16792;SDS011;8513;42.662;23.350;2023-07-29T00:38:19;5.38;;;2.45;;
16792;SDS011;8513;42.662;23.350;2023-07-29T00:40:44;3.88;;;2.65;;
16792;SDS011;8513;42.662;23.350;2023-07-29T00:43:10;3.08;;;2.78;;
16792;SDS011;8513;42.662;23.350;2023-07-29T00:45:36;4.20;;;3.17;;
16792;SDS011;8513;42.662;23.350;2023-07-29T00:48:02;3.70;;;2.72;;
16792;SDS011;8513;42.662;23.350;2023-07-29T00:50:28;2.80;;;2.60;;
16792;SDS011;8513;42.662;23.350;2023-07-29T00:52:56;3.35;;;2.72;;
16792;SDS011;8513;42.662;23.350;2023-07-29T00:55:22;3.15;;;2.70;;
16792;SDS011;8513;42.662;23.350;2023-07-29T00:57:48;4.78;;;2.70;;
16792;SDS011;8513;42.662;23.350;2023-07-29T01:00:16;3.28;;;2.30;;
16792;SDS011;8513;42.662;23.350;2023-07-29T01:02:42;4.63;;;2.50;;
16792;SDS011;8513;42.662;23.350;2023-07-29T01:05:09;2.63;;;2.42;;
16792;SDS011;8513;42.662;23.350;2023-07-29T01:07:39;3.00;;;2.60;;
16792;SDS011;8513;42.662;23.350;2023-07-29T01:18:17;2.60;;;2.40;;
16792;SDS011;8513;42.662;23.350;2023-07-29T01:20:45;2.85;;;2.60;;
16792;SDS011;8513;42.662;23.350;2023-07-29T01:23:13;2.97;;;2.70;;
16792;SDS011;8513;42.662;23.350;2023-07-29T01:25:38;3.08;;;2.63;;
16792;SDS011;8513;42.662;23.350;2023-07-29T01:28:04;4.07;;;3.00;;
16792;SDS011;8513;42.662;23.350;2023-07-29T01:30:31;3.03;;;2.70;;
16792;SDS011;8513;42.662;23.350;2023-07-29T01:36:21;3.00;;;2.80;;
16792;SDS011;8513;42.662;23.350;2023-07-29T01:38:50;3.33;;;2.58;;
16792;SDS011;8513;42.662;23.350;2023-07-29T01:41:18;3.13;;;2.65;;
16792;SDS011;8513;42.662;23.350;2023-07-29T01:43:44;4.57;;;2.38;;
16792;SDS011;8513;42.662;23.350;2023-07-29T01:46:11;3.30;;;2.78;;
16792;SDS011;8513;42.662;23.350;2023-07-29T01:48:40;5.45;;;3.00;;
16792;SDS011;8513;42.662;23.350;2023-07-29T01:51:06;3.13;;;2.70;;
16792;SDS011;8513;42.662;23.350;2023-07-29T01:53:32;4.13;;;2.97;;
16792;SDS011;8513;42.662;23.350;2023-07-29T01:55:57;3.08;;;2.70;;
16792;SDS011;8513;42.662;23.350;2023-07-29T01:58:23;3.97;;;3.08;;
16792;SDS011;8513;42.662;23.350;2023-07-29T02:00:49;5.05;;;3.60;;
16792;SDS011;8513;42.662;23.350;2023-07-29T02:03:14;4.82;;;3.03;;
16792;SDS011;8513;42.662;23.350;2023-07-29T02:05:40;4.97;;;3.38;;
16792;SDS011;8513;42.662;23.350;2023-07-29T02:08:07;3.78;;;2.90;;
16792;SDS011;8513;42.662;23.350;2023-07-29T02:10:33;4.18;;;3.05;;
16792;SDS011;8513;42.662;23.350;2023-07-29T02:12:58;4.60;;;3.13;;
16792;SDS011;8513;42.662;23.350;2023-07-29T02:15:23;3.00;;;2.80;;
16792;SDS011;8513;42.662;23.350;2023-07-29T02:17:49;5.00;;;3.17;;
16792;SDS011;8513;42.662;23.350;2023-07-29T02:20:15;4.47;;;3.00;;
16792;SDS011;8513;42.662;23.350;2023-07-29T02:22:41;4.28;;;3.08;;
16792;SDS011;8513;42.662;23.350;2023-07-29T02:25:06;3.38;;;3.03;;
16792;SDS011;8513;42.662;23.350;2023-07-29T02:27:32;4.47;;;3.35;;
16792;SDS011;8513;42.662;23.350;2023-07-29T02:29:58;6.45;;;3.20;;
16792;SDS011;8513;42.662;23.350;2023-07-29T02:32:23;3.65;;;3.10;;
16792;SDS011;8513;42.662;23.350;2023-07-29T02:34:49;5.93;;;3.33;;
16792;SDS011;8513;42.662;23.350;2023-07-29T02:37:14;3.55;;;3.22;;
16792;SDS011;8513;42.662;23.350;2023-07-29T02:39:40;4.28;;;2.90;;
16792;SDS011;8513;42.662;23.350;2023-07-29T02:42:05;5.22;;;2.83;;
16792;SDS011;8513;42.662;23.350;2023-07-29T02:44:31;3.22;;;2.92;;
16792;SDS011;8513;42.662;23.350;2023-07-29T02:46:56;4.70;;;2.83;;
16792;SDS011;8513;42.662;23.350;2023-07-29T02:49:22;3.45;;;3.15;;
16792;SDS011;8513;42.662;23.350;2023-07-29T02:51:48;3.80;;;3.00;;
16792;SDS011;8513;42.662;23.350;2023-07-29T02:54:14;3.40;;;2.92;;
16792;SDS011;8513;42.662;23.350;2023-07-29T02:56:39;4.28;;;3.05;;
16792;SDS011;8513;42.662;23.350;2023-07-29T02:59:05;7.28;;;3.33;;
16792;SDS011;8513;42.662;23.350;2023-07-29T03:01:30;3.15;;;2.70;;
16792;SDS011;8513;42.662;23.350;2023-07-29T03:03:56;3.30;;;3.00;;
16792;SDS011;8513;42.662;23.350;2023-07-29T03:06:22;3.40;;;3.05;;
16792;SDS011;8513;42.662;23.350;2023-07-29T03:08:47;4.15;;;2.90;;
16792;SDS011;8513;42.662;23.350;2023-07-29T03:11:13;3.25;;;2.75;;
16792;SDS011;8513;42.662;23.350;2023-07-29T03:13:40;3.53;;;2.78;;
16792;SDS011;8513;42.662;23.350;2023-07-29T03:16:06;3.15;;;2.75;;
16792;SDS011;8513;42.662;23.350;2023-07-29T03:18:39;5.38;;;2.88;;
16792;SDS011;8513;42.662;23.350;2023-07-29T03:21:06;3.17;;;2.88;;
16792;SDS011;8513;42.662;23.350;2023-07-29T03:23:32;5.68;;;2.95;;
16792;SDS011;8513;42.662;23.350;2023-07-29T03:25:59;3.30;;;2.85;;
16792;SDS011;8513;42.662;23.350;2023-07-29T03:28:26;3.03;;;2.78;;
16792;SDS011;8513;42.662;23.350;2023-07-29T03:30:53;4.18;;;3.13;;
16792;SDS011;8513;42.662;23.350;2023-07-29T03:33:18;4.13;;;2.95;;
16792;SDS011;8513;42.662;23.350;2023-07-29T03:35:44;5.35;;;3.08;;
16792;SDS011;8513;42.662;23.350;2023-07-29T03:38:10;3.05;;;2.75;;
16792;SDS011;8513;42.662;23.350;2023-07-29T03:40:36;3.45;;;3.15;;
16792;SDS011;8513;42.662;23.350;2023-07-29T03:43:02;3.65;;;3.35;;
16792;SDS011;8513;42.662;23.350;2023-07-29T03:45:27;3.42;;;3.10;;
16792;SDS011;8513;42.662;23.350;2023-07-29T03:47:53;4.78;;;2.92;;
16792;SDS011;8513;42.662;23.350;2023-07-29T03:50:18;3.13;;;2.83;;
16792;SDS011;8513;42.662;23.350;2023-07-29T03:52:44;3.30;;;3.00;;
16792;SDS011;8513;42.662;23.350;2023-07-29T03:55:09;4.03;;;3.40;;
16792;SDS011;8513;42.662;23.350;2023-07-29T03:57:35;5.05;;;2.95;;
16792;SDS011;8513;42.662;23.350;2023-07-29T04:00:00;4.22;;;3.03;;
16792;SDS011;8513;42.662;23.350;2023-07-29T04:02:26;3.40;;;3.10;;
16792;SDS011;8513;42.662;23.350;2023-07-29T04:04:51;4.43;;;3.90;;
16792;SDS011;8513;42.662;23.350;2023-07-29T04:07:16;4.85;;;3.17;;
16792;SDS011;8513;42.662;23.350;2023-07-29T04:09:42;3.42;;;3.13;;
16792;SDS011;8513;42.662;23.350;2023-07-29T04:12:08;3.95;;;3.50;;
16792;SDS011;8513;42.662;23.350;2023-07-29T04:14:34;4.35;;;3.33;;
16792;SDS011;8513;42.662;23.350;2023-07-29T04:17:00;4.75;;;3.45;;
16792;SDS011;8513;42.662;23.350;2023-07-29T04:19:26;5.43;;;3.60;;
16792;SDS011;8513;42.662;23.350;2023-07-29T04:21:51;5.22;;;3.72;;
16792;SDS011;8513;42.662;23.350;2023-07-29T04:24:17;5.68;;;3.58;;
16792;SDS011;8513;42.662;23.350;2023-07-29T04:26:42;4.40;;;3.70;;
16792;SDS011;8513;42.662;23.350;2023-07-29T04:29:08;4.78;;;3.17;;
16792;SDS011;8513;42.662;23.350;2023-07-29T04:31:34;6.47;;;2.95;;
16792;SDS011;8513;42.662;23.350;2023-07-29T04:33:59;3.83;;;3.30;;
16792;SDS011;8513;42.662;23.350;2023-07-29T04:36:24;3.47;;;3.17;;
16792;SDS011;8513;42.662;23.350;2023-07-29T04:38:50;3.78;;;3.13;;
16792;SDS011;8513;42.662;23.350;2023-07-29T04:41:15;3.47;;;3.03;;
16792;SDS011;8513;42.662;23.350;2023-07-29T04:43:41;3.28;;;2.90;;
16792;SDS011;8513;42.662;23.350;2023-07-29T04:46:06;3.65;;;3.35;;
16792;SDS011;8513;42.662;23.350;2023-07-29T04:48:33;3.00;;;2.70;;
16792;SDS011;8513;42.662;23.350;2023-07-29T04:50:59;3.92;;;2.90;;
16792;SDS011;8513;42.662;23.350;2023-07-29T04:53:24;3.85;;;2.65;;
16792;SDS011;8513;42.662;23.350;2023-07-29T04:55:50;3.97;;;2.50;;
16792;SDS011;8513;42.662;23.350;2023-07-29T04:58:15;3.10;;;2.63;;
16792;SDS011;8513;42.662;23.350;2023-07-29T05:00:41;2.67;;;2.47;;
16792;SDS011;8513;42.662;23.350;2023-07-29T05:03:06;3.22;;;2.67;;
16792;SDS011;8513;42.662;23.350;2023-07-29T05:05:32;3.90;;;3.53;;
16792;SDS011;8513;42.662;23.350;2023-07-29T05:07:57;3.58;;;3.25;;
16792;SDS011;8513;42.662;23.350;2023-07-29T05:10:23;4.35;;;2.97;;
16792;SDS011;8513;42.662;23.350;2023-07-29T05:12:48;3.20;;;2.90;;
16792;SDS011;8513;42.662;23.350;2023-07-29T05:15:14;3.75;;;3.38;;
16792;SDS011;8513;42.662;23.350;2023-07-29T05:17:39;3.30;;;3.00;;
16792;SDS011;8513;42.662;23.350;2023-07-29T05:20:05;4.20;;;3.15;;
16792;SDS011;8513;42.662;23.350;2023-07-29T05:22:31;4.38;;;2.60;;
16792;SDS011;8513;42.662;23.350;2023-07-29T05:24:56;3.55;;;2.75;;
16792;SDS011;8513;42.662;23.350;2023-07-29T05:27:22;3.40;;;2.95;;
16792;SDS011;8513;42.662;23.350;2023-07-29T05:29:47;3.13;;;2.83;;
16792;SDS011;8513;42.662;23.350;2023-07-29T05:32:13;2.65;;;2.45;;
16792;SDS011;8513;42.662;23.350;2023-07-29T05:34:38;3.20;;;2.65;;
16792;SDS011;8513;42.662;23.350;2023-07-29T05:37:03;3.22;;;2.97;;
16792;SDS011;8513;42.662;23.350;2023-07-29T05:39:29;3.13;;;2.67;;
16792;SDS011;8513;42.662;23.350;2023-07-29T05:41:57;2.97;;;2.67;;
16792;SDS011;8513;42.662;23.350;2023-07-29T05:44:22;3.30;;;2.67;;
16792;SDS011;8513;42.662;23.350;2023-07-29T05:46:48;3.38;;;3.08;;
16792;SDS011;8513;42.662;23.350;2023-07-29T05:49:13;2.92;;;2.72;;
16792;SDS011;8513;42.662;23.350;2023-07-29T05:51:38;3.08;;;2.55;;
16792;SDS011;8513;42.662;23.350;2023-07-29T05:54:04;3.40;;;2.97;;
16792;SDS011;8513;42.662;23.350;2023-07-29T05:56:29;3.47;;;2.80;;
16792;SDS011;8513;42.662;23.350;2023-07-29T05:58:56;2.88;;;2.42;;
16792;SDS011;8513;42.662;23.350;2023-07-29T06:01:23;2.95;;;2.72;;
16792;SDS011;8513;42.662;23.350;2023-07-29T06:03:48;3.22;;;2.92;;
16792;SDS011;8513;42.662;23.350;2023-07-29T06:06:14;3.55;;;2.63;;
16792;SDS011;8513;42.662;23.350;2023-07-29T06:08:39;3.60;;;2.85;;
16792;SDS011;8513;42.662;23.350;2023-07-29T06:11:05;4.40;;;2.72;;
16792;SDS011;8513;42.662;23.350;2023-07-29T06:13:33;3.30;;;2.80;;
16792;SDS011;8513;42.662;23.350;2023-07-29T06:15:58;3.05;;;2.85;;
16792;SDS011;8513;42.662;23.350;2023-07-29T06:18:24;3.85;;;3.22;;
16792;SDS011;8513;42.662;23.350;2023-07-29T06:20:50;5.63;;;5.13;;
16792;SDS011;8513;42.662;23.350;2023-07-29T06:23:15;3.50;;;3.20;;
16792;SDS011;8513;42.662;23.350;2023-07-29T06:25:41;2.92;;;2.72;;
16792;SDS011;8513;42.662;23.350;2023-07-29T06:28:06;3.63;;;3.13;;
16792;SDS011;8513;42.662;23.350;2023-07-29T06:30:32;4.38;;;3.03;;
16792;SDS011;8513;42.662;23.350;2023-07-29T06:32:57;3.65;;;2.80;;
16792;SDS011;8513;42.662;23.350;2023-07-29T06:35:23;2.88;;;2.67;;
16792;SDS011;8513;42.662;23.350;2023-07-29T06:37:48;3.25;;;2.95;;
16792;SDS011;8513;42.662;23.350;2023-07-29T06:40:14;5.43;;;3.97;;
16792;SDS011;8513;42.662;23.350;2023-07-29T06:42:40;3.58;;;2.90;;
16792;SDS011;8513;42.662;23.350;2023-07-29T06:45:06;3.30;;;3.05;;
16792;SDS011;8513;42.662;23.350;2023-07-29T06:47:31;5.30;;;4.10;;
16792;SDS011;8513;42.662;23.350;2023-07-29T06:49:57;3.88;;;3.47;;
16792;SDS011;8513;42.662;23.350;2023-07-29T06:52:22;4.07;;;2.85;;
16792;SDS011;8513;42.662;23.350;2023-07-29T06:54:48;4.35;;;3.95;;
16792;SDS011;8513;42.662;23.350;2023-07-29T06:57:13;3.60;;;3.15;;
16792;SDS011;8513;42.662;23.350;2023-07-29T06:59:38;5.85;;;3.20;;
16792;SDS011;8513;42.662;23.350;2023-07-29T07:02:04;3.65;;;3.20;;
16792;SDS011;8513;42.662;23.350;2023-07-29T07:04:30;4.68;;;3.45;;
16792;SDS011;8513;42.662;23.350;2023-07-29T07:06:55;5.88;;;3.45;;
16792;SDS011;8513;42.662;23.350;2023-07-29T07:09:21;4.22;;;3.08;;
16792;SDS011;8513;42.662;23.350;2023-07-29T07:11:46;4.43;;;3.60;;
16792;SDS011;8513;42.662;23.350;2023-07-29T07:14:12;4.15;;;3.30;;
16792;SDS011;8513;42.662;23.350;2023-07-29T07:16:37;4.45;;;3.55;;
16792;SDS011;8513;42.662;23.350;2023-07-29T07:19:04;5.22;;;3.20;;
16792;SDS011;8513;42.662;23.350;2023-07-29T07:21:30;4.57;;;3.60;;
16792;SDS011;8513;42.662;23.350;2023-07-29T07:23:55;5.60;;;3.45;;
16792;SDS011;8513;42.662;23.350;2023-07-29T07:26:20;4.22;;;3.55;;
16792;SDS011;8513;42.662;23.350;2023-07-29T07:28:46;4.13;;;3.10;;
16792;SDS011;8513;42.662;23.350;2023-07-29T07:31:11;4.93;;;3.70;;
16792;SDS011;8513;42.662;23.350;2023-07-29T07:33:37;3.70;;;3.40;;
16792;SDS011;8513;42.662;23.350;2023-07-29T07:36:02;4.78;;;3.33;;
16792;SDS011;8513;42.662;23.350;2023-07-29T07:38:28;4.07;;;3.67;;
16792;SDS011;8513;42.662;23.350;2023-07-29T07:40:54;3.70;;;3.40;;
16792;SDS011;8513;42.662;23.350;2023-07-29T07:43:21;5.03;;;3.83;;
16792;SDS011;8513;42.662;23.350;2023-07-29T07:45:46;5.00;;;3.60;;
16792;SDS011;8513;42.662;23.350;2023-07-29T07:48:12;3.97;;;3.58;;
16792;SDS011;8513;42.662;23.350;2023-07-29T07:50:38;5.03;;;3.88;;
16792;SDS011;8513;42.662;23.350;2023-07-29T07:53:04;7.63;;;4.20;;
16792;SDS011;8513;42.662;23.350;2023-07-29T07:55:29;4.68;;;3.75;;
16792;SDS011;8513;42.662;23.350;2023-07-29T07:57:55;4.95;;;3.67;;
16792;SDS011;8513;42.662;23.350;2023-07-29T08:00:20;4.30;;;3.85;;
16792;SDS011;8513;42.662;23.350;2023-07-29T08:02:46;5.95;;;3.40;;
16792;SDS011;8513;42.662;23.350;2023-07-29T08:05:11;5.50;;;3.70;;
16792;SDS011;8513;42.662;23.350;2023-07-29T08:07:37;7.47;;;3.65;;
16792;SDS011;8513;42.662;23.350;2023-07-29T08:10:02;5.03;;;4.10;;
16792;SDS011;8513;42.662;23.350;2023-07-29T08:12:28;5.88;;;3.95;;
16792;SDS011;8513;42.662;23.350;2023-07-29T08:14:53;5.03;;;3.70;;
16792;SDS011;8513;42.662;23.350;2023-07-29T08:17:19;5.50;;;4.07;;
16792;SDS011;8513;42.662;23.350;2023-07-29T08:19:44;4.70;;;3.95;;
16792;SDS011;8513;42.662;23.350;2023-07-29T08:22:09;3.53;;;3.22;;
16792;SDS011;8513;42.662;23.350;2023-07-29T08:24:35;4.22;;;3.80;;
16792;SDS011;8513;42.662;23.350;2023-07-29T08:27:00;5.82;;;3.53;;
16792;SDS011;8513;42.662;23.350;2023-07-29T08:29:26;4.10;;;3.45;;
16792;SDS011;8513;42.662;23.350;2023-07-29T08:31:51;4.75;;;3.72;;
16792;SDS011;8513;42.662;23.350;2023-07-29T08:34:17;3.45;;;3.15;;
16792;SDS011;8513;42.662;23.350;2023-07-29T08:36:43;3.53;;;3.22;;
16792;SDS011;8513;42.662;23.350;2023-07-29T08:39:08;3.30;;;3.00;;
16792;SDS011;8513;42.662;23.350;2023-07-29T08:41:37;5.57;;;3.35;;
16792;SDS011;8513;42.662;23.350;2023-07-29T08:44:21;5.70;;;3.10;;
16792;SDS011;8513;42.662;23.350;2023-07-29T08:46:48;4.50;;;3.47;;
16792;SDS011;8513;42.662;23.350;2023-07-29T08:49:15;4.15;;;3.42;;
16792;SDS011;8513;42.662;23.350;2023-07-29T08:51:44;4.15;;;3.33;;
16792;SDS011;8513;42.662;23.350;2023-07-29T08:54:11;5.78;;;3.50;;
16792;SDS011;8513;42.662;23.350;2023-07-29T08:56:38;3.90;;;2.90;;
16792;SDS011;8513;42.662;23.350;2023-07-29T08:59:05;3.95;;;2.70;;
16792;SDS011;8513;42.662;23.350;2023-07-29T09:01:32;3.53;;;2.30;;
16792;SDS011;8513;42.662;23.350;2023-07-29T09:03:57;3.40;;;2.60;;
16792;SDS011;8513;42.662;23.350;2023-07-29T09:06:23;2.80;;;2.60;;
16792;SDS011;8513;42.662;23.350;2023-07-29T09:08:50;3.35;;;2.53;;
16792;SDS011;8513;42.662;23.350;2023-07-29T09:11:18;3.03;;;2.75;;
16792;SDS011;8513;42.662;23.350;2023-07-29T09:13:45;2.40;;;2.20;;
16792;SDS011;8513;42.662;23.350;2023-07-29T09:16:10;3.75;;;2.35;;
16792;SDS011;8513;42.662;23.350;2023-07-29T09:18:36;2.95;;;2.10;;
16792;SDS011;8513;42.662;23.350;2023-07-29T09:21:02;3.03;;;2.22;;
16792;SDS011;8513;42.662;23.350;2023-07-29T09:23:28;2.35;;;2.15;;
16792;SDS011;8513;42.662;23.350;2023-07-29T09:26:03;2.85;;;2.50;;
16792;SDS011;8513;42.662;23.350;2023-07-29T09:28:32;2.53;;;2.33;;
16792;SDS011;8513;42.662;23.350;2023-07-29T09:30:59;3.35;;;2.35;;
16792;SDS011;8513;42.662;23.350;2023-07-29T09:33:28;2.50;;;2.00;;
16792;SDS011;8513;42.662;23.350;2023-07-29T09:35:54;2.25;;;2.05;;
16792;SDS011;8513;42.662;23.350;2023-07-29T09:38:25;2.35;;;2.13;;
16792;SDS011;8513;42.662;23.350;2023-07-29T09:40:54;1.80;;;1.70;;
16792;SDS011;8513;42.662;23.350;2023-07-29T09:43:21;2.70;;;1.90;;
16792;SDS011;8513;42.662;23.350;2023-07-29T09:45:51;3.88;;;2.08;;
16792;SDS011;8513;42.662;23.350;2023-07-29T09:48:17;2.30;;;2.10;;
16792;SDS011;8513;42.662;23.350;2023-07-29T09:50:47;4.22;;;2.30;;
16792;SDS011;8513;42.662;23.350;2023-07-29T09:53:13;3.35;;;2.00;;
16792;SDS011;8513;42.662;23.350;2023-07-29T09:55:39;2.42;;;2.10;;
16792;SDS011;8513;42.662;23.350;2023-07-29T09:58:10;2.35;;;2.15;;
16792;SDS011;8513;42.662;23.350;2023-07-29T10:00:36;2.20;;;2.10;;
16792;SDS011;8513;42.662;23.350;2023-07-29T10:03:04;8.77;;;1.90;;
16792;SDS011;8513;42.662;23.350;2023-07-29T10:05:29;1.60;;;1.50;;
16792;SDS011;8513;42.662;23.350;2023-07-29T10:07:55;1.90;;;1.67;;
16792;SDS011;8513;42.662;23.350;2023-07-29T10:10:21;2.80;;;1.73;;
16792;SDS011;8513;42.662;23.350;2023-07-29T10:12:47;2.55;;;2.30;;
16792;SDS011;8513;42.662;23.350;2023-07-29T10:15:14;2.65;;;1.90;;
16792;SDS011;8513;42.662;23.350;2023-07-29T10:17:40;3.30;;;1.67;;
16792;SDS011;8513;42.662;23.350;2023-07-29T10:20:06;1.73;;;1.40;;
16792;SDS011;8513;42.662;23.350;2023-07-29T10:22:41;2.00;;;1.90;;
16792;SDS011;8513;42.662;23.350;2023-07-29T10:25:08;2.53;;;2.08;;
16792;SDS011;8513;42.662;23.350;2023-07-29T10:27:42;1.95;;;1.52;;
16792;SDS011;8513;42.662;23.350;2023-07-29T10:30:28;1.52;;;1.30;;
16792;SDS011;8513;42.662;23.350;2023-07-29T10:32:54;1.65;;;1.50;;
16792;SDS011;8513;42.662;23.350;2023-07-29T10:35:23;1.60;;;1.50;;
16792;SDS011;8513;42.662;23.350;2023-07-29T10:37:48;1.80;;;1.60;;
16792;SDS011;8513;42.662;23.350;2023-07-29T10:40:16;2.92;;;1.50;;
16792;SDS011;8513;42.662;23.350;2023-07-29T10:42:58;2.25;;;1.48;;
16792;SDS011;8513;42.662;23.350;2023-07-29T10:45:41;1.88;;;1.48;;
16792;SDS011;8513;42.662;23.350;2023-07-29T10:50:36;1.92;;;1.50;;
16792;SDS011;8513;42.662;23.350;2023-07-29T10:53:02;1.63;;;1.52;;
16792;SDS011;8513;42.662;23.350;2023-07-29T10:55:28;1.67;;;1.58;;
16792;SDS011;8513;42.662;23.350;2023-07-29T10:58:07;1.83;;;1.55;;
16792;SDS011;8513;42.662;23.350;2023-07-29T11:00:36;1.70;;;1.60;;
16792;SDS011;8513;42.662;23.350;2023-07-29T11:03:02;3.38;;;1.67;;
16792;SDS011;8513;42.662;23.350;2023-07-29T11:05:46;2.65;;;1.60;;
16792;SDS011;8513;42.662;23.350;2023-07-29T11:08:19;1.52;;;1.40;;
16792;SDS011;8513;42.662;23.350;2023-07-29T11:11:07;1.38;;;1.27;;
16792;SDS011;8513;42.662;23.350;2023-07-29T11:13:37;1.63;;;1.52;;
16792;SDS011;8513;42.662;23.350;2023-07-29T11:16:03;2.67;;;1.50;;
16792;SDS011;8513;42.662;23.350;2023-07-29T11:18:33;1.45;;;1.35;;
16792;SDS011;8513;42.662;23.350;2023-07-29T11:21:00;1.55;;;1.27;;
16792;SDS011;8513;42.662;23.350;2023-07-29T11:23:30;2.03;;;1.30;;
16792;SDS011;8513;42.662;23.350;2023-07-29T11:26:00;1.33;;;1.23;;
16792;SDS011;8513;42.662;23.350;2023-07-29T11:28:27;2.00;;;1.20;;
16792;SDS011;8513;42.662;23.350;2023-07-29T11:30:53;1.40;;;1.30;;
16792;SDS011;8513;42.662;23.350;2023-07-29T11:33:20;1.67;;;1.50;;
16792;SDS011;8513;42.662;23.350;2023-07-29T11:35:47;1.40;;;1.30;;
16792;SDS011;8513;42.662;23.350;2023-07-29T11:38:16;1.90;;;1.50;;
16792;SDS011;8513;42.662;23.350;2023-07-29T11:40:42;1.52;;;1.33;;
16792;SDS011;8513;42.662;23.350;2023-07-29T11:43:08;1.40;;;1.30;;
16792;SDS011;8513;42.662;23.350;2023-07-29T11:45:34;2.13;;;1.15;;
16792;SDS011;8513;42.662;23.350;2023-07-29T11:48:01;1.20;;;1.10;;
16792;SDS011;8513;42.662;23.350;2023-07-29T11:50:26;1.02;;;1.00;;
16792;SDS011;8513;42.662;23.350;2023-07-29T11:52:52;1.27;;;1.13;;
16792;SDS011;8513;42.662;23.350;2023-07-29T11:55:17;1.50;;;1.40;;
16792;SDS011;8513;42.662;23.350;2023-07-29T11:57:44;1.20;;;1.10;;
16792;SDS011;8513;42.662;23.350;2023-07-29T12:00:16;1.33;;;1.23;;
16792;SDS011;8513;42.662;23.350;2023-07-29T12:02:43;1.30;;;1.20;;
16792;SDS011;8513;42.662;23.350;2023-07-29T12:05:10;2.63;;;1.15;;
16792;SDS011;8513;42.662;23.350;2023-07-29T12:07:40;1.20;;;1.10;;
16792;SDS011;8513;42.662;23.350;2023-07-29T12:10:07;1.17;;;1.00;;
16792;SDS011;8513;42.662;23.350;2023-07-29T12:12:38;2.65;;;1.40;;
16792;SDS011;8513;42.662;23.350;2023-07-29T12:15:13;1.65;;;1.08;;
16792;SDS011;8513;42.662;23.350;2023-07-29T12:17:47;1.50;;;1.40;;
16792;SDS011;8513;42.662;23.350;2023-07-29T12:20:12;1.20;;;1.10;;
16792;SDS011;8513;42.662;23.350;2023-07-29T12:22:38;1.30;;;1.20;;
16792;SDS011;8513;42.662;23.350;2023-07-29T12:25:04;1.33;;;1.10;;
16792;SDS011;8513;42.662;23.350;2023-07-29T12:27:30;1.75;;;1.10;;
16792;SDS011;8513;42.662;23.350;2023-07-29T12:29:55;1.23;;;1.00;;
16792;SDS011;8513;42.662;23.350;2023-07-29T12:32:20;2.72;;;1.27;;
16792;SDS011;8513;42.662;23.350;2023-07-29T12:34:52;1.92;;;1.40;;
16792;SDS011;8513;42.662;23.350;2023-07-29T12:37:18;1.30;;;1.20;;
16792;SDS011;8513;42.662;23.350;2023-07-29T12:39:43;2.63;;;1.60;;
16792;SDS011;8513;42.662;23.350;2023-07-29T12:42:09;1.50;;;1.27;;
16792;SDS011;8513;42.662;23.350;2023-07-29T12:44:35;1.80;;;1.50;;
16792;SDS011;8513;42.662;23.350;2023-07-29T12:47:03;1.35;;;1.20;;
16792;SDS011;8513;42.662;23.350;2023-07-29T12:49:31;2.13;;;1.27;;
16792;SDS011;8513;42.662;23.350;2023-07-29T12:51:57;2.35;;;1.40;;
16792;SDS011;8513;42.662;23.350;2023-07-29T12:54:23;1.75;;;1.45;;
16792;SDS011;8513;42.662;23.350;2023-07-29T12:56:48;1.35;;;1.25;;
16792;SDS011;8513;42.662;23.350;2023-07-29T12:59:14;1.67;;;1.27;;
16792;SDS011;8513;42.662;23.350;2023-07-29T13:01:40;3.08;;;1.55;;
16792;SDS011;8513;42.662;23.350;2023-07-29T13:04:05;1.55;;;1.45;;
16792;SDS011;8513;42.662;23.350;2023-07-29T13:06:31;1.83;;;1.52;;
16792;SDS011;8513;42.662;23.350;2023-07-29T13:08:56;3.08;;;1.27;;
16792;SDS011;8513;42.662;23.350;2023-07-29T13:11:21;3.03;;;1.60;;
16792;SDS011;8513;42.662;23.350;2023-07-29T13:13:47;3.28;;;1.50;;
16792;SDS011;8513;42.662;23.350;2023-07-29T13:16:12;2.08;;;1.67;;
16792;SDS011;8513;42.662;23.350;2023-07-29T13:18:38;3.47;;;1.60;;
16792;SDS011;8513;42.662;23.350;2023-07-29T13:21:04;1.40;;;1.30;;
16792;SDS011;8513;42.662;23.350;2023-07-29T13:23:29;1.60;;;1.45;;
16792;SDS011;8513;42.662;23.350;2023-07-29T13:25:55;1.63;;;1.52;;
16792;SDS011;8513;42.662;23.350;2023-07-29T13:28:21;5.43;;;1.40;;
16792;SDS011;8513;42.662;23.350;2023-07-29T13:30:46;2.00;;;1.52;;
16792;SDS011;8513;42.662;23.350;2023-07-29T13:33:12;1.25;;;1.15;;
16792;SDS011;8513;42.662;23.350;2023-07-29T13:35:37;1.52;;;1.42;;
16792;SDS011;8513;42.662;23.350;2023-07-29T13:38:02;1.65;;;1.55;;
16792;SDS011;8513;42.662;23.350;2023-07-29T13:40:28;3.08;;;1.30;;
16792;SDS011;8513;42.662;23.350;2023-07-29T13:42:54;1.33;;;1.23;;
16792;SDS011;8513;42.662;23.350;2023-07-29T13:45:20;1.33;;;1.23;;
16792;SDS011;8513;42.662;23.350;2023-07-29T13:47:45;1.90;;;1.50;;
16792;SDS011;8513;42.662;23.350;2023-07-29T13:50:11;4.57;;;1.60;;
16792;SDS011;8513;42.662;23.350;2023-07-29T13:52:37;3.42;;;1.52;;
16792;SDS011;8513;42.662;23.350;2023-07-29T13:55:05;2.08;;;1.23;;
16792;SDS011;8513;42.662;23.350;2023-07-29T13:57:31;1.40;;;1.25;;
16792;SDS011;8513;42.662;23.350;2023-07-29T13:59:57;3.92;;;1.35;;
16792;SDS011;8513;42.662;23.350;2023-07-29T14:02:23;5.20;;;1.70;;
16792;SDS011;8513;42.662;23.350;2023-07-29T14:04:49;7.93;;;1.52;;
16792;SDS011;8513;42.662;23.350;2023-07-29T14:07:14;4.47;;;1.73;;
16792;SDS011;8513;42.662;23.350;2023-07-29T14:09:39;4.20;;;1.60;;
16792;SDS011;8513;42.662;23.350;2023-07-29T14:12:05;15.35;;;2.50;;
16792;SDS011;8513;42.662;23.350;2023-07-29T14:14:31;2.05;;;1.30;;
16792;SDS011;8513;42.662;23.350;2023-07-29T14:16:57;1.75;;;1.65;;
16792;SDS011;8513;42.662;23.350;2023-07-29T14:19:22;2.10;;;1.50;;
16792;SDS011;8513;42.662;23.350;2023-07-29T14:21:48;1.27;;;1.17;;
16792;SDS011;8513;42.662;23.350;2023-07-29T14:24:14;1.85;;;1.30;;
16792;SDS011;8513;42.662;23.350;2023-07-29T14:26:40;1.80;;;1.65;;
16792;SDS011;8513;42.662;23.350;2023-07-29T14:29:06;1.83;;;1.52;;
16792;SDS011;8513;42.662;23.350;2023-07-29T14:31:31;1.63;;;1.52;;
16792;SDS011;8513;42.662;23.350;2023-07-29T14:33:57;1.80;;;1.70;;
16792;SDS011;8513;42.662;23.350;2023-07-29T14:36:23;2.05;;;1.85;;
16792;SDS011;8513;42.662;23.350;2023-07-29T14:38:48;2.65;;;2.55;;
16792;SDS011;8513;42.662;23.350;2023-07-29T14:41:14;2.97;;;2.88;;
16792;SDS011;8513;42.662;23.350;2023-07-29T14:43:39;6.35;;;3.47;;
16792;SDS011;8513;42.662;23.350;2023-07-29T14:46:05;7.25;;;3.50;;
16792;SDS011;8513;42.662;23.350;2023-07-29T14:48:30;2.63;;;2.42;;
16792;SDS011;8513;42.662;23.350;2023-07-29T14:50:56;7.25;;;3.33;;
16792;SDS011;8513;42.662;23.350;2023-07-29T14:53:21;3.58;;;3.47;;
16792;SDS011;8513;42.662;23.350;2023-07-29T14:55:46;5.20;;;4.93;;
16792;SDS011;8513;42.662;23.350;2023-07-29T14:58:12;5.60;;;5.20;;